createdAt,value
2022-09-10T00:00:59.238Z,15.79
2022-09-10T00:04:08.071Z,15.77
2022-09-10T00:07:11.601Z,15.74
2022-09-10T00:10:14.770Z,15.70
2022-09-10T00:13:20.918Z,15.65
2022-09-10T00:16:23.976Z,15.62
2022-09-10T00:19:27.877Z,15.58
2022-09-10T00:22:30.390Z,15.54
2022-09-10T00:25:33.081Z,15.52
2022-09-10T00:28:35.788Z,15.50
2022-09-10T00:31:39.522Z,15.48
2022-09-10T00:34:42.322Z,15.46
2022-09-10T00:37:46.109Z,15.43
2022-09-10T00:40:48.999Z,15.41
2022-09-10T00:43:53.365Z,15.38
2022-09-10T00:46:56.016Z,15.36
2022-09-10T00:50:02.662Z,15.34
2022-09-10T00:53:07.762Z,15.34
2022-09-10T00:56:10.432Z,15.33
2022-09-10T00:59:14.090Z,15.34
2022-09-10T01:02:16.987Z,15.35
2022-09-10T01:05:19.825Z,15.36
2022-09-10T01:08:22.845Z,15.36
2022-09-10T01:11:39.050Z,15.35
2022-09-10T01:14:52.458Z,15.36
2022-09-10T01:18:02.946Z,15.36
2022-09-10T01:21:10.446Z,15.37
2022-09-10T01:24:32.466Z,15.37
2022-09-10T01:27:39.387Z,15.37
2022-09-10T01:30:43.991Z,15.39
2022-09-10T01:33:49.513Z,15.37
2022-09-10T01:36:54.366Z,15.36
2022-09-10T01:39:59.390Z,15.34
2022-09-10T01:43:05.711Z,15.29
2022-09-10T01:46:17.963Z,15.23
2022-09-10T01:49:27.843Z,15.15
2022-09-10T01:52:36.512Z,15.05
2022-09-10T01:55:46.223Z,14.97
2022-09-10T01:58:49.134Z,14.90
2022-09-10T02:02:03.354Z,14.82
2022-09-10T02:05:07.866Z,14.76
2022-09-10T02:08:14.589Z,14.70
2022-09-10T02:11:18.169Z,14.66
2022-09-10T02:14:24.826Z,14.64
2022-09-10T02:17:58.334Z,14.60
2022-09-10T02:21:03.987Z,14.59
2022-09-10T02:24:09.550Z,14.57
2022-09-10T02:27:12.742Z,14.57
2022-09-10T02:30:16.355Z,14.57
2022-09-10T02:33:19.126Z,14.56
2022-09-10T02:36:25.483Z,14.55
2022-09-10T02:39:28.445Z,14.55
2022-09-10T02:42:31.244Z,14.55
2022-09-10T02:45:33.917Z,14.54
2022-09-10T02:48:36.768Z,14.53
2022-09-10T02:51:41.259Z,14.54
2022-09-10T02:54:44.296Z,14.52
2022-09-10T02:57:47.214Z,14.51
2022-09-10T03:00:50.230Z,14.53
2022-09-10T03:03:54.486Z,14.55
2022-09-10T03:06:59.508Z,14.57
2022-09-10T03:10:02.481Z,14.59
2022-09-10T03:13:05.740Z,14.63
2022-09-10T03:16:09.755Z,14.65
2022-09-10T03:19:13.557Z,14.68
2022-09-10T03:22:16.242Z,14.70
2022-09-10T03:25:19.459Z,14.69
2022-09-10T03:28:23.935Z,14.69
2022-09-10T03:31:26.889Z,14.69
2022-09-10T03:34:29.775Z,14.68
2022-09-10T03:37:32.394Z,14.64
2022-09-10T03:40:35.164Z,14.65
2022-09-10T03:43:37.779Z,14.62
2022-09-10T03:46:44.984Z,14.60
2022-09-10T03:49:50.367Z,14.58
2022-09-10T03:52:52.953Z,14.56
2022-09-10T03:55:55.753Z,14.55
2022-09-10T03:58:58.454Z,14.53
2022-09-10T04:02:02.857Z,14.51
2022-09-10T04:05:09.134Z,14.49
2022-09-10T04:08:14.189Z,14.49
2022-09-10T04:11:17.086Z,14.47
2022-09-10T04:14:19.859Z,14.44
2022-09-10T04:17:24.844Z,14.43
2022-09-10T04:20:31.410Z,14.43
2022-09-10T04:23:42.798Z,14.41
2022-09-10T04:26:46.177Z,14.39
2022-09-10T04:29:51.608Z,14.39
2022-09-10T04:32:54.261Z,14.38
2022-09-10T04:35:59.986Z,14.37
2022-09-10T04:39:02.961Z,14.36
2022-09-10T04:42:07.863Z,14.35
2022-09-10T04:45:13.052Z,14.33
2022-09-10T04:48:17.678Z,14.33
2022-09-10T04:51:20.324Z,14.32
2022-09-10T04:54:25.351Z,14.31
2022-09-10T04:57:28.353Z,14.30
2022-09-10T05:00:30.870Z,14.31
2022-09-10T05:03:33.953Z,14.30
2022-09-10T05:06:36.886Z,14.29
2022-09-10T05:09:41.009Z,14.28
2022-09-10T05:12:43.648Z,14.28
2022-09-10T05:15:47.453Z,14.28
2022-09-10T05:18:52.520Z,14.28
2022-09-10T05:21:55.255Z,14.29
2022-09-10T05:24:58.164Z,14.30
2022-09-10T05:28:01.036Z,14.31
2022-09-10T05:31:03.686Z,14.31
2022-09-10T05:34:07.801Z,14.35
2022-09-10T05:37:11.458Z,14.38
2022-09-10T05:40:15.446Z,14.40
2022-09-10T05:43:18.534Z,14.42
2022-09-10T05:46:21.702Z,14.45
2022-09-10T05:49:27.539Z,14.51
2022-09-10T05:52:32.268Z,14.56
2022-09-10T05:55:38.329Z,14.64
2022-09-10T05:58:44.741Z,14.69
2022-09-10T06:01:50.962Z,14.77
2022-09-10T06:04:54.750Z,14.86
2022-09-10T06:07:58.384Z,14.93
2022-09-10T06:11:04.526Z,14.97
2022-09-10T06:14:14.401Z,15.03
2022-09-10T06:17:17.519Z,15.09
2022-09-10T06:20:20.401Z,15.14
2022-09-10T06:23:26.044Z,15.18
2022-09-10T06:26:28.608Z,15.23
2022-09-10T06:29:36.060Z,15.30
2022-09-10T06:32:39.383Z,15.36
2022-09-10T06:35:44.115Z,15.46
2022-09-10T06:38:49.038Z,15.54
2022-09-10T06:41:53.161Z,15.59
2022-09-10T06:45:17.685Z,15.69
2022-09-10T06:48:47.630Z,15.75
2022-09-10T06:51:51.622Z,15.80
2022-09-10T06:54:54.452Z,15.80
2022-09-10T06:58:09.088Z,15.79
2022-09-10T07:01:15.413Z,15.83
2022-09-10T07:04:21.492Z,15.94
2022-09-10T07:07:24.536Z,16.06
2022-09-10T07:10:27.795Z,16.16
2022-09-10T07:13:31.271Z,16.28
2022-09-10T07:16:35.057Z,16.41
2022-09-10T07:19:37.847Z,16.54
2022-09-10T07:22:48.580Z,16.65
2022-09-10T07:25:55.659Z,16.77
2022-09-10T07:29:12.354Z,16.89
2022-09-10T07:32:15.249Z,16.91
2022-09-10T07:35:18.038Z,16.93
2022-09-10T07:38:22.203Z,16.97
2022-09-10T07:41:27.611Z,17.03
2022-09-10T07:44:30.430Z,17.10
2022-09-10T07:47:36.780Z,17.16
2022-09-10T07:50:40.608Z,17.21
2022-09-10T07:53:50.341Z,17.26
2022-09-10T07:56:55.710Z,17.28
2022-09-10T08:00:00.132Z,17.35
2022-09-10T08:03:05.706Z,17.43
2022-09-10T08:06:09.611Z,17.53
2022-09-10T08:09:17.201Z,17.55
2022-09-10T08:12:25.145Z,17.55
2022-09-10T08:15:35.552Z,17.60
2022-09-10T08:18:38.540Z,17.68
2022-09-10T08:21:41.609Z,17.81
2022-09-10T08:24:47.310Z,17.94
2022-09-10T08:27:50.243Z,18.03
2022-09-10T08:30:58.642Z,18.16
2022-09-10T08:34:01.739Z,18.28
2022-09-10T08:37:04.754Z,18.35
2022-09-10T08:40:11.390Z,18.43
2022-09-10T08:43:15.205Z,18.50
2022-09-10T08:46:21.742Z,18.58
2022-09-10T08:49:29.974Z,18.62
2022-09-10T08:52:37.768Z,18.67
2022-09-10T08:55:45.994Z,18.74
2022-09-10T08:58:54.244Z,18.87
2022-09-10T09:01:59.898Z,19.05
2022-09-10T09:05:05.867Z,19.18
2022-09-10T09:08:11.758Z,19.28
2022-09-10T09:11:16.976Z,19.37
2022-09-10T09:14:25.662Z,19.47
2022-09-10T09:17:38.003Z,19.56
2022-09-10T09:20:45.739Z,19.66
2022-09-10T09:24:12.119Z,19.77
2022-09-10T09:27:19.583Z,19.90
2022-09-10T09:30:24.280Z,19.98
2022-09-10T09:33:29.552Z,20.02
2022-09-10T09:36:37.143Z,20.05
2022-09-10T09:39:42.862Z,20.02
2022-09-10T09:42:48.417Z,19.97
2022-09-10T09:45:53.552Z,19.90
2022-09-10T09:48:57.942Z,19.87
2022-09-10T09:52:02.989Z,19.86
2022-09-10T09:55:15.247Z,19.86
2022-09-10T09:58:29.229Z,19.91
2022-09-10T10:01:32.783Z,20.01
2022-09-10T10:04:40.167Z,20.10
2022-09-10T10:07:47.920Z,20.22
2022-09-10T10:10:52.044Z,20.33
2022-09-10T10:14:11.466Z,20.49
2022-09-10T10:17:32.421Z,20.62
2022-09-10T10:20:36.261Z,20.68
2022-09-10T10:23:39.072Z,20.69
2022-09-10T10:26:43.550Z,20.74
2022-09-10T10:30:01.688Z,20.80
2022-09-10T10:33:04.418Z,20.90
2022-09-10T10:36:14.684Z,20.98
2022-09-10T10:39:23.801Z,21.09
2022-09-10T10:42:29.820Z,21.19
2022-09-10T10:45:42.040Z,21.28
2022-09-10T10:49:03.587Z,21.27
2022-09-10T10:52:18.720Z,21.28
2022-09-10T10:55:23.812Z,21.32
2022-09-10T10:58:39.133Z,21.40
2022-09-10T11:01:45.424Z,21.53
2022-09-10T11:04:59.331Z,21.66
2022-09-10T11:08:22.916Z,21.76
2022-09-10T11:11:37.983Z,21.82
2022-09-10T11:14:45.284Z,21.76
2022-09-10T11:17:51.041Z,21.60
2022-09-10T11:20:58.456Z,21.55
2022-09-10T11:24:03.982Z,21.54
2022-09-10T11:27:09.343Z,21.59
2022-09-10T11:37:15.052Z,22.30
2022-09-10T11:40:26.628Z,22.37
2022-09-10T11:43:41.867Z,22.43
2022-09-10T11:46:55.870Z,22.47
2022-09-10T11:50:01.733Z,22.52
2022-09-10T11:53:06.827Z,22.39
2022-09-10T11:56:27.489Z,22.23
2022-09-10T11:59:53.761Z,22.09
2022-09-10T12:03:12.932Z,22.05
2022-09-10T12:06:22.097Z,22.10
2022-09-10T12:09:32.231Z,22.13
2022-09-10T12:16:19.534Z,22.32
2022-09-10T12:19:26.481Z,22.48
2022-09-10T12:22:41.209Z,22.52
2022-09-10T12:25:46.469Z,22.52
2022-09-10T12:28:57.904Z,22.48
2022-09-10T12:32:27.965Z,22.43
2022-09-10T12:35:41.270Z,22.30
2022-09-10T12:38:50.767Z,22.23
2022-09-10T12:42:16.095Z,22.09
2022-09-10T12:45:36.249Z,21.98
2022-09-10T12:48:42.983Z,21.92
2022-09-10T12:51:56.564Z,21.80
2022-09-10T12:55:04.133Z,21.82
2022-09-10T12:58:11.944Z,21.82
2022-09-10T13:01:18.216Z,21.88
2022-09-10T13:04:24.188Z,21.93
2022-09-10T13:07:32.838Z,21.92
2022-09-10T13:10:36.369Z,21.82
2022-09-10T13:13:40.538Z,21.66
2022-09-10T13:16:43.370Z,21.44
2022-09-10T13:19:50.729Z,21.31
2022-09-10T13:22:58.164Z,21.34
2022-09-10T13:26:30.485Z,21.52
2022-09-10T13:29:34.939Z,21.86
2022-09-10T13:32:40.626Z,22.25
2022-09-10T13:35:55.537Z,22.45
2022-09-10T13:39:17.025Z,22.50
2022-09-10T13:42:31.279Z,22.51
2022-09-10T13:45:39.276Z,22.59
2022-09-10T13:48:45.566Z,22.78
2022-09-10T13:51:51.150Z,22.91
2022-09-10T13:54:55.967Z,23.00
2022-09-10T13:58:01.360Z,23.10
2022-09-10T14:01:04.916Z,23.23
2022-09-10T14:04:21.330Z,23.26
2022-09-10T14:07:26.160Z,23.29
2022-09-10T14:10:28.945Z,23.22
2022-09-10T14:13:34.823Z,23.10
2022-09-10T14:16:40.360Z,22.89
2022-09-10T14:19:48.598Z,22.65
2022-09-10T14:22:53.062Z,22.50
2022-09-10T14:26:09.416Z,22.50
2022-09-10T14:29:24.108Z,22.56
2022-09-10T14:32:28.331Z,22.71
2022-09-10T14:35:38.599Z,22.96
2022-09-10T14:38:42.111Z,23.17
2022-09-10T14:41:44.751Z,23.35
2022-09-10T14:44:49.981Z,23.50
2022-09-10T14:47:53.808Z,23.55
2022-09-10T14:51:17.337Z,23.54
2022-09-10T14:54:20.208Z,23.28
2022-09-10T14:57:22.813Z,22.98
2022-09-10T15:00:25.906Z,22.60
2022-09-10T15:03:28.720Z,22.37
2022-09-10T15:06:31.414Z,22.15
2022-09-10T15:09:34.090Z,22.27
2022-09-10T15:12:39.228Z,22.66
2022-09-10T15:15:41.843Z,23.08
2022-09-10T15:18:44.597Z,23.22
2022-09-10T15:21:47.206Z,23.43
2022-09-10T15:25:08.654Z,23.68
2022-09-10T15:28:12.366Z,23.66
2022-09-10T15:31:16.754Z,23.64
2022-09-10T15:34:19.563Z,23.28
2022-09-10T15:37:22.495Z,22.59
2022-09-10T15:40:25.017Z,21.99
2022-09-10T15:43:27.605Z,21.53
2022-09-10T15:46:30.369Z,21.08
2022-09-10T15:49:34.675Z,20.77
2022-09-10T15:52:37.483Z,20.57
2022-09-10T15:55:40.191Z,20.45
2022-09-10T15:58:47.192Z,20.41
2022-09-10T16:01:49.941Z,20.39
2022-09-10T16:04:53.283Z,20.22
2022-09-10T16:07:56.050Z,20.02
2022-09-10T16:10:59.351Z,19.84
2022-09-10T16:14:04.762Z,19.64
2022-09-10T16:17:09.974Z,19.41
2022-09-10T16:20:12.507Z,19.15
2022-09-10T16:23:16.527Z,18.87
2022-09-10T16:26:20.421Z,18.58
2022-09-10T16:29:23.055Z,18.35
2022-09-10T16:32:25.732Z,18.14
2022-09-10T16:35:28.405Z,17.95
2022-09-10T16:38:31.938Z,17.75
2022-09-10T16:41:34.739Z,17.60
2022-09-10T16:44:38.117Z,17.41
2022-09-10T16:47:40.936Z,17.25
2022-09-10T16:50:43.597Z,17.12
2022-09-10T16:53:48.113Z,16.99
2022-09-10T16:56:50.818Z,16.91
2022-09-10T16:59:53.597Z,16.83
2022-09-10T17:02:58.552Z,16.75
2022-09-10T17:06:01.375Z,16.68
2022-09-10T17:09:04.284Z,16.59
2022-09-10T17:12:09.856Z,16.47
2022-09-10T17:15:12.484Z,16.36
2022-09-10T17:18:16.022Z,16.27
2022-09-10T17:21:21.017Z,16.17
2022-09-10T17:24:26.854Z,16.06
2022-09-10T17:27:30.320Z,15.96
2022-09-10T17:30:32.990Z,15.86
2022-09-10T17:33:35.846Z,15.71
2022-09-10T17:36:39.394Z,15.59
2022-09-10T17:39:42.081Z,15.46
2022-09-10T17:42:45.061Z,15.35
2022-09-10T17:45:47.675Z,15.25
2022-09-10T17:48:50.821Z,15.15
2022-09-10T17:51:53.559Z,15.08
2022-09-10T17:54:57.158Z,15.02
2022-09-10T17:58:00.084Z,14.96
2022-09-10T18:01:05.394Z,14.93
2022-09-10T18:04:12.076Z,14.91
2022-09-10T18:07:14.748Z,14.88
2022-09-10T18:10:17.687Z,14.86
2022-09-10T18:13:20.426Z,14.85
2022-09-10T18:16:24.164Z,14.83
2022-09-10T18:19:27.463Z,14.82
2022-09-10T18:22:30.072Z,14.82
2022-09-10T18:25:32.947Z,14.81
2022-09-10T18:28:35.652Z,14.82
2022-09-10T18:31:39.114Z,14.82
2022-09-10T18:34:42.763Z,14.80
2022-09-10T18:37:49.447Z,14.81
2022-09-10T18:40:52.123Z,14.80
2022-09-10T18:43:58.900Z,14.80
2022-09-10T18:47:01.853Z,14.80
2022-09-10T18:50:06.149Z,14.78
2022-09-10T18:53:09.240Z,14.77
2022-09-10T18:56:13.080Z,14.77
2022-09-10T18:59:19.466Z,14.77
2022-09-10T19:02:22.481Z,14.76
2022-09-10T19:05:25.201Z,14.77
2022-09-10T19:08:27.967Z,14.78
2022-09-10T19:11:32.750Z,14.81
2022-09-10T19:14:35.590Z,14.86
2022-09-10T19:17:38.334Z,14.90
2022-09-10T19:20:40.981Z,14.91
2022-09-10T19:23:44.492Z,14.88
2022-09-10T19:26:47.243Z,14.89
2022-09-10T19:29:50.389Z,14.90
2022-09-10T19:32:53.762Z,14.89
2022-09-10T19:35:56.770Z,14.88
2022-09-10T19:39:01.274Z,14.85
2022-09-10T19:42:06.720Z,14.84
2022-09-10T19:45:10.775Z,14.83
2022-09-10T19:48:13.726Z,14.80
2022-09-10T19:51:18.500Z,14.76
2022-09-10T19:54:22.069Z,14.70
2022-09-10T19:57:24.848Z,14.67
2022-09-10T20:00:45.930Z,14.64
2022-09-10T20:03:50.180Z,14.61
2022-09-10T20:06:53.226Z,14.59
2022-09-10T20:09:55.992Z,14.57
2022-09-10T20:12:58.575Z,14.56
2022-09-10T20:16:02.080Z,14.56
2022-09-10T20:19:05.296Z,14.57
2022-09-10T20:22:07.987Z,14.56
2022-09-10T20:25:10.850Z,14.59
2022-09-10T20:28:13.821Z,14.60
2022-09-10T20:31:16.860Z,14.61
2022-09-10T20:34:20.794Z,14.64
2022-09-10T20:37:24.282Z,14.68
2022-09-10T20:40:27.111Z,14.72
2022-09-10T20:43:29.834Z,14.73
2022-09-10T20:46:33.792Z,14.71
2022-09-10T20:49:36.486Z,14.68
2022-09-10T20:52:39.421Z,14.65
2022-09-10T20:55:42.465Z,14.65
2022-09-10T20:58:48.596Z,14.69
2022-09-10T21:01:51.907Z,14.71
2022-09-10T21:04:54.979Z,14.73
2022-09-10T21:07:58.636Z,14.70
2022-09-10T21:11:02.455Z,14.72
2022-09-10T21:14:06.453Z,14.76
2022-09-10T21:17:09.522Z,14.76
2022-09-10T21:20:12.951Z,14.76
2022-09-10T21:23:16.309Z,14.78
2022-09-10T21:26:20.134Z,14.82
2022-09-10T21:29:23.858Z,14.80
2022-09-10T21:32:26.787Z,14.78
2022-09-10T21:35:30.522Z,14.76
2022-09-10T21:38:34.974Z,14.74
2022-09-10T21:41:39.455Z,14.67
2022-09-10T21:44:42.102Z,14.61
2022-09-10T21:47:44.991Z,14.54
2022-09-10T21:50:47.865Z,14.50
2022-09-10T21:53:52.506Z,14.45
2022-09-10T21:56:55.417Z,14.42
2022-09-10T21:59:58.232Z,14.38
2022-09-10T22:03:01.021Z,14.35
2022-09-10T22:06:04.663Z,14.35
2022-09-10T22:09:09.301Z,14.36
2022-09-10T22:12:12.089Z,14.38
2022-09-10T22:15:15.422Z,14.37
2022-09-10T22:18:19.875Z,14.37
2022-09-10T22:21:22.908Z,14.37
2022-09-10T22:24:25.838Z,14.37
2022-09-10T22:27:28.552Z,14.38
2022-09-10T22:30:31.383Z,14.42
2022-09-10T22:33:34.533Z,14.41
2022-09-10T22:36:37.975Z,14.38
2022-09-10T22:39:40.902Z,14.36
2022-09-10T22:42:43.832Z,14.37
2022-09-10T22:45:46.591Z,14.35
2022-09-10T22:48:49.250Z,14.36
2022-09-10T22:51:52.288Z,14.38
2022-09-10T22:54:56.943Z,14.41
2022-09-10T22:57:59.751Z,14.45
2022-09-10T23:01:07.437Z,14.45
2022-09-10T23:04:11.237Z,14.42
2022-09-10T23:07:14.244Z,14.37
2022-09-10T23:10:17.563Z,14.35
2022-09-10T23:13:20.459Z,14.34
2022-09-10T23:16:24.135Z,14.31
2022-09-10T23:19:28.800Z,14.30
2022-09-10T23:22:32.073Z,14.25
2022-09-10T23:25:35.647Z,14.23
2022-09-10T23:28:38.536Z,14.23
2022-09-10T23:31:41.202Z,14.27
2022-09-10T23:34:44.569Z,14.25
2022-09-10T23:37:51.553Z,14.24
2022-09-10T23:40:55.472Z,14.23
2022-09-10T23:43:58.264Z,14.26
2022-09-10T23:47:00.878Z,14.24
2022-09-10T23:50:05.492Z,14.21
2022-09-10T23:53:08.630Z,14.22
2022-09-10T23:56:11.301Z,14.22
2022-09-10T23:59:14.727Z,14.21
